»·PEaware :: AAL211 KSFO-KSEA

AAL211 :: KSFO-KSEA

FLIGHT INFORMATION

Flight Status: Arrived
Operator:
American Airlines
More flights by this operator :: More flights under this callsign
Pilot: Robert M. (1649)
Aircraft: BOEING 737-800
(B738)
More flights by this aircraft type
Origin: KSFO San Francisco Intl
United States
Destination: KSEA Seattle-Tacoma Intl
United States
More flights between these airports :: More routes between these airports
Route: KSFO 01L TRUKN2 DEDHD BTG HAWKZ5
File this flight plan on PilotEdge
Remarks:
Altitude:
(Current/Filed)
38,000ft
Speed:
(Current/Filed)
450kts
Departed: 08-Jun-17 06:55 AM
Arrived: 08-Jun-17 08:23 AM
Distance/Time
Traveled:
590nm/1:28
Distance/Time
To Go:
Arrived

Flight Plot

Page will automatically refresh every two minutes.

Flight plan parsing failed; only flown route is shown


Map Options




Map Legend


Flown Route
Filed Route
Departure Airport
Arrival Airport
Navaid (VOR, NDB)
Fix

Horizontal Profiles

Position Reports

Time Latitude Longitude Heading Altitude Ground
Speed
08-Jun-17 06:42 37.611648 -122.390699 72 21ft 0kts
08-Jun-17 06:43 37.611648 -122.390699 72 21ft 0kts
08-Jun-17 06:44 37.611648 -122.390699 72 21ft 0kts
08-Jun-17 06:45 37.611648 -122.390699 72 21ft 0kts
08-Jun-17 06:46 37.611648 -122.390699 72 21ft 0kts
08-Jun-17 06:47 37.611648 -122.390699 72 21ft 0kts
08-Jun-17 06:48 37.611648 -122.390699 72 21ft 0kts
08-Jun-17 06:49 37.611648 -122.390699 72 21ft 0kts
08-Jun-17 06:50 37.611648 -122.390699 72 21ft 0kts
08-Jun-17 06:51 37.611583 -122.390986 91 21ft 3kts
08-Jun-17 06:52 37.611610 -122.391156 121 21ft 0kts
08-Jun-17 06:53 37.611250 -122.391337 319 21ft 6kts
08-Jun-17 06:54 37.610852 -122.390722 118 21ft 11kts
08-Jun-17 06:55 37.611108 -122.385839 118 21ft 9kts
08-Jun-17 06:56 37.609322 -122.383475 125 21ft 14kts
08-Jun-17 06:57 37.611751 -122.380373 27 21ft 83kts
08-Jun-17 06:58 37.651257 -122.339607 59 2685ft 224kts
08-Jun-17 06:59 37.692372 -122.263073 57 6227ft 289kts
08-Jun-17 07:00 37.756916 -122.206523 1 10440ft 311kts
08-Jun-17 07:01 37.851401 -122.192602 2 13314ft 374kts
08-Jun-17 07:02 37.963091 -122.174172 2 16057ft 427kts
08-Jun-17 07:03 38.084984 -122.154086 2 19062ft 453kts
08-Jun-17 07:04 38.212998 -122.132962 1 21705ft 474kts
08-Jun-17 07:05 38.346255 -122.112328 355 23914ft 488kts
08-Jun-17 07:06 38.480821 -122.121780 348 26121ft 488kts
08-Jun-17 07:07 38.617689 -122.131258 347 28112ft 493kts
08-Jun-17 07:08 38.753065 -122.139765 345 30474ft 482kts
08-Jun-17 07:09 38.886024 -122.148449 345 32533ft 475kts
08-Jun-17 07:10 39.016940 -122.156932 344 34283ft 469kts
08-Jun-17 07:11 39.147721 -122.165423 345 35593ft 469kts
08-Jun-17 07:12 39.278351 -122.173916 345 36627ft 472kts
08-Jun-17 07:13 39.409653 -122.182386 345 37630ft 473kts
08-Jun-17 07:14 39.541454 -122.190968 345 38065ft 476kts
08-Jun-17 07:15 39.674346 -122.199522 345 38069ft 478kts
08-Jun-17 07:16 39.806955 -122.208151 345 38067ft 480kts
08-Jun-17 07:17 39.940245 -122.216712 345 38058ft 480kts
08-Jun-17 07:18 40.074085 -122.225429 346 38054ft 482kts
08-Jun-17 07:19 40.207806 -122.234032 346 38052ft 482kts
08-Jun-17 07:20 40.341810 -122.242724 346 38047ft 482kts
08-Jun-17 07:21 40.475786 -122.251402 346 38036ft 483kts
08-Jun-17 07:22 40.610573 -122.260095 347 38034ft 484kts
08-Jun-17 07:23 40.745094 -122.268838 348 38033ft 486kts
08-Jun-17 07:24 40.880381 -122.277551 349 38033ft 488kts
08-Jun-17 07:25 41.016131 -122.286359 349 38024ft 490kts
08-Jun-17 07:26 41.153176 -122.295200 350 38016ft 492kts
08-Jun-17 07:27 41.290107 -122.304088 351 38015ft 496kts
08-Jun-17 07:28 41.428213 -122.312982 352 38011ft 499kts
08-Jun-17 07:29 41.567058 -122.321969 352 37987ft 501kts
08-Jun-17 07:30 41.706754 -122.330912 352 37958ft 501kts
08-Jun-17 07:31 41.846312 -122.339993 353 37950ft 504kts
08-Jun-17 07:32 41.986380 -122.348995 353 37947ft 505kts
08-Jun-17 07:33 42.127490 -122.358139 354 37939ft 507kts
08-Jun-17 07:34 42.268281 -122.367225 354 37921ft 507kts
08-Jun-17 07:35 42.408514 -122.376284 354 37910ft 506kts
08-Jun-17 07:36 42.549332 -122.385393 354 37902ft 507kts
08-Jun-17 07:37 42.690774 -122.394517 354 37895ft 508kts
08-Jun-17 07:38 42.832008 -122.403643 355 37890ft 509kts
08-Jun-17 07:39 42.973463 -122.412777 355 37885ft 510kts
08-Jun-17 07:40 43.115343 -122.421941 355 37879ft 512kts
08-Jun-17 07:41 43.258190 -122.431168 356 37870ft 513kts
08-Jun-17 07:42 43.400403 -122.440349 356 37859ft 514kts
08-Jun-17 07:43 43.543671 -122.449602 356 37855ft 517kts
08-Jun-17 07:44 43.687555 -122.458887 356 37851ft 518kts
08-Jun-17 07:45 43.831836 -122.468192 357 37848ft 518kts
08-Jun-17 07:46 43.975800 -122.477505 357 37845ft 516kts
08-Jun-17 07:47 44.119504 -122.486764 357 37844ft 521kts
08-Jun-17 07:48 44.264353 -122.496128 357 37837ft 521kts
08-Jun-17 07:49 44.409537 -122.505500 357 37823ft 521kts
08-Jun-17 07:50 44.553974 -122.514808 357 37820ft 518kts
08-Jun-17 07:51 44.698235 -122.524130 357 37820ft 520kts
08-Jun-17 07:52 44.842604 -122.533433 357 37816ft 520kts
08-Jun-17 07:53 44.986989 -122.542655 357 37817ft 519kts
08-Jun-17 07:54 45.126763 -122.551714 357 37820ft 494kts
08-Jun-17 07:55 45.265704 -122.560658 357 37823ft 504kts
08-Jun-17 07:56 45.405500 -122.569668 357 37820ft 503kts
08-Jun-17 07:57 45.545798 -122.578721 357 37816ft 504kts
08-Jun-17 07:58 45.685947 -122.587757 357 37807ft 504kts
08-Jun-17 07:59 45.825468 -122.609085 349 35309ft 511kts
08-Jun-17 08:00 45.966045 -122.645452 351 32546ft 515kts
08-Jun-17 08:01 46.107262 -122.680640 353 29775ft 511kts
08-Jun-17 08:02 46.245979 -122.707669 354 27072ft 497kts
08-Jun-17 08:03 46.380936 -122.726999 2 24510ft 478kts
08-Jun-17 08:04 46.511429 -122.729544 0 22117ft 460kts
08-Jun-17 08:05 46.637204 -122.733570 359 19809ft 442kts
08-Jun-17 08:06 46.757116 -122.737917 1 17991ft 414kts
08-Jun-17 08:07 46.849721 -122.662612 44 16421ft 377kts
08-Jun-17 08:08 46.930363 -122.570269 39 15080ft 354kts
08-Jun-17 08:09 47.022151 -122.524295 17 13666ft 344kts
08-Jun-17 08:10 47.113555 -122.491807 5 12210ft 334kts
08-Jun-17 08:11 47.204386 -122.477437 5 10798ft 323kts
08-Jun-17 08:12 47.292251 -122.464570 5 9429ft 312kts
08-Jun-17 08:13 47.377109 -122.453770 358 8106ft 298kts
08-Jun-17 08:14 47.457861 -122.455473 358 6852ft 283kts
08-Jun-17 08:15 47.533196 -122.456401 355 6041ft 254kts
08-Jun-17 08:16 47.601941 -122.462185 355 5844ft 237kts
08-Jun-17 08:17 47.662183 -122.466598 356 4646ft 208kts
08-Jun-17 08:18 47.686793 -122.408915 96 3105ft 185kts
08-Jun-17 08:19 47.676758 -122.336380 143 3019ft 180kts
08-Jun-17 08:20 47.632861 -122.305973 180 3018ft 178kts
08-Jun-17 08:21 47.583058 -122.306687 180 2745ft 177kts
08-Jun-17 08:22 47.537651 -122.307082 180 1863ft 140kts
08-Jun-17 08:23 47.500623 -122.307396 179 1201ft 133kts
08-Jun-17 08:24 47.461926 -122.307778 178 487ft 134kts
08-Jun-17 08:25 47.450411 -122.306147 179 442ft 20kts
08-Jun-17 08:26 47.448591 -122.303666 99 442ft 0kts

Navigation Log

Ident Type
Flight plan parsing failed, navigation log unavailable